Orbital elements of COSMOS 2251 DEB
| Launched | 15 June 1993 |
| Flight ended | – |
| Launch site | Plesetsk Missile and Space Complex, Russia |
| Owner | Commonwealth of Independent States (former USSR) |
| NORAD ID | 34571 |
| Date fetched |
Epoch osculation |
Inc. [°] |
Ecc. | RA asc node [hr] |
Arg Peri. [°] |
Mean anom [°] |
Mean motion [rev/day] |
Abs. mag |
| Date fetched |
Epoch osculation |
Inc. [°] |
Ecc. | RA asc node [hr] |
Arg Peri. [°] |
Mean anom [°] |
Mean motion [rev/day] |
Abs. mag |
| 2026 May 07 17:58 | 2026 May 04 19:54:47 | 74.0371 | 0.00589 | 18.2390 | 274.8764 | 84.5672 | 14.51713 | – |
| 2026 May 06 17:57 | 2026 May 04 19:54:47 | 74.0371 | 0.00589 | 18.2390 | 274.8764 | 84.5672 | 14.51713 | – |
| 2026 May 05 17:57 | 2026 May 04 19:54:47 | 74.0371 | 0.00589 | 18.2390 | 274.8764 | 84.5672 | 14.51713 | – |
| 2026 May 04 17:57 | 2026 Apr 29 20:49:47 | 74.0392 | 0.00586 | 18.8619 | 285.4684 | 84.5672 | 14.51713 | – |
| 2026 May 03 17:57 | 2026 Apr 29 20:49:47 | 74.0392 | 0.00586 | 18.8619 | 285.4684 | 84.5672 | 14.51713 | – |
| 2026 May 02 17:57 | 2026 Apr 29 20:49:47 | 74.0392 | 0.00586 | 18.8619 | 285.4684 | 84.5672 | 14.51713 | – |
| 2026 May 01 17:56 | 2026 Apr 29 20:49:47 | 74.0392 | 0.00586 | 18.8619 | 285.4684 | 84.5672 | 14.51713 | – |
| 2026 Apr 30 17:56 | 2026 Apr 29 20:49:47 | 74.0392 | 0.00586 | 18.8619 | 285.4684 | 84.5672 | 14.51713 | – |
| 2026 Apr 29 17:57 | 2026 Apr 21 22:36:52 | 74.0388 | 0.00585 | 19.8566 | 302.3844 | 84.5672 | 14.51713 | – |
| 2026 Apr 28 17:56 | 2026 Apr 21 22:36:52 | 74.0388 | 0.00585 | 19.8566 | 302.3844 | 84.5672 | 14.51713 | – |
| 2026 Apr 27 17:58 | 2026 Apr 21 22:36:52 | 74.0388 | 0.00585 | 19.8566 | 302.3844 | 84.5672 | 14.51713 | – |
| 2026 Apr 26 17:58 | 2026 Apr 21 22:36:52 | 74.0388 | 0.00585 | 19.8566 | 302.3844 | 84.5672 | 14.51713 | – |
| 2026 Apr 25 17:58 | 2026 Apr 21 22:36:52 | 74.0388 | 0.00585 | 19.8566 | 302.3844 | 84.5672 | 14.51713 | – |
| 2026 Apr 24 17:59 | 2026 Apr 21 22:36:52 | 74.0388 | 0.00585 | 19.8566 | 302.3844 | 84.5672 | 14.51713 | – |
| 2026 Apr 23 17:57 | 2026 Apr 19 12:43:13 | 74.0388 | 0.00585 | 20.1593 | 307.5015 | 84.5672 | 14.51713 | – |
| 2026 Apr 22 17:57 | 2026 Apr 19 12:43:13 | 74.0388 | 0.00585 | 20.1593 | 307.5015 | 84.5672 | 14.51713 | – |
| 2026 Apr 21 17:57 | 2026 Apr 19 12:43:13 | 74.0388 | 0.00585 | 20.1593 | 307.5015 | 84.5672 | 14.51713 | – |
| 2026 Apr 20 17:57 | 2026 Apr 19 12:43:13 | 74.0388 | 0.00585 | 20.1593 | 307.5015 | 84.5672 | 14.51713 | – |
| 2026 Apr 19 17:58 | 2026 Apr 19 12:43:13 | 74.0388 | 0.00585 | 20.1593 | 307.5015 | 84.5672 | 14.51713 | – |
| 2026 Apr 18 17:56 | 2026 Apr 12 23:34:31 | 74.0400 | 0.00587 | 20.9810 | 321.4000 | 84.5672 | 14.51713 | – |
| 2026 Apr 16 17:57 | 2026 Apr 12 23:34:31 | 74.0400 | 0.00587 | 20.9810 | 321.4000 | 84.5672 | 14.51713 | – |
| 2026 Apr 14 17:57 | 2026 Apr 12 23:34:31 | 74.0400 | 0.00587 | 20.9810 | 321.4000 | 84.5672 | 14.51713 | – |
| 2026 Apr 13 17:57 | 2026 Apr 12 23:34:31 | 74.0400 | 0.00587 | 20.9810 | 321.4000 | 84.5672 | 14.51713 | – |
| 2026 Apr 12 17:57 | 2026 Apr 07 01:18:46 | 74.0406 | 0.00588 | 21.7247 | 333.8123 | 84.5672 | 14.51713 | – |
| 2026 Apr 11 17:57 | 2026 Apr 07 01:18:46 | 74.0406 | 0.00588 | 21.7247 | 333.8123 | 84.5672 | 14.51713 | – |
| 2026 Apr 10 17:58 | 2026 Apr 07 01:18:46 | 74.0406 | 0.00588 | 21.7247 | 333.8123 | 84.5672 | 14.51713 | – |